KTYQKPWK

Guest
Details From KTYQ - Indianapolis Executive
To KPWK - Chicago Executive
Flight Number -
Tags generated
Created
Modified
Stats Distance 146 nm / 270 km
Max Altitude 18,000 ft / 5,486 m
Waypoints 3
Social Downloads 3
Likes 0
Share VATSIM

Download

Looking for another format? Having issues loading an existing format? Contact us
Advertisement - Login to hide

Notes

Basic altitude profile: - Ascent Rate: 2500ft/min - Ascent Speed: 250kts - Cruise Altitude: 35000ft - Cruise Speed: 420kts - Descent Rate: 1500ft/min - Descent Speed: 250kts Options: - Use NATs: yes - Use PACOTS: yes - Use low airways: yes - Use high airways: no

Route

KTYQ MONON KPWK

ID Type Via Altitude Latitude Longitude Leg Dist Tot Dist Heading (true) Name
O KTYQ APT - 0 ft / 0 m 40.03067˚ -86.25143˚ - 0 nm - Indianapolis Executive
MONON FIX - 18,000 ft / 5,486 m 40.83348˚ -86.91843˚ 57 nm 57 nm 328° / 327° -
O KPWK APT - 0 ft / 0 m 42.11408˚ -87.90135˚ 88 nm 145 nm 330° / 330° Chicago Executive

Altitude Profile

Advertisement - Login to hide

KTYQ

Details ICAO KTYQ
Name Indianapolis Executive
Region United States
Timezone America/Indiana/Indianapolis (UTC-5.0)
Stats Elevation 922 ft / 281 m (AMSL)
Location 40.030668° -86.251435°
Runways 1
Magnetic Variation 4.709° W

METAR

KTYQ 131255Z AUTO 18008KT 10SM OVC080 M06/M13 A2981 RMK AO2 T10561135

Decode

TAF

Not found

Departure Runways

ID Width Length Bearing (true) Bearing (mag) Surface Threshold Offset Overrun Length
18 100 ft / 30 m 5,510 ft / 1,679 m 179.47° 184.18° Asphalt 0 ft / 0 m 0 ft / 0 m
36 100 ft / 30 m 5,510 ft / 1,679 m 359.47° 4.18° Asphalt 157 ft / 48 m 0 ft / 0 m

KPWK

Details ICAO KPWK (PWK)
Name Chicago Executive
Region United States
Timezone America/Chicago (UTC-6.0)
Stats Elevation 647 ft / 197 m (AMSL)
Location 42.114076° -87.901353°
Runways 3
Magnetic Variation 3.757° W

METAR

KPWK 131252Z 17014KT 10SM OVC090 M03/M11 A2961 RMK AO2 PRESFR SLP036 T10331111

Decode

TAF

Not found

Destination Runways

ID Width Length Bearing (true) Bearing (mag) Surface Threshold Offset Overrun Length
06 50 ft / 15 m 3,654 ft / 1,114 m 63.29° 67.05° Asphalt 354 ft / 108 m 0 ft / 0 m
12 75 ft / 23 m 4,379 ft / 1,335 m 118.06° 121.82° Asphalt 289 ft / 88 m 0 ft / 0 m
16 150 ft / 46 m 5,005 ft / 1,525 m 158.67° 162.43° Asphalt 0 ft / 0 m 0 ft / 0 m
24 50 ft / 15 m 3,654 ft / 1,114 m 243.30° 247.06° Asphalt 1,251 ft / 381 m 0 ft / 0 m
30 75 ft / 23 m 4,379 ft / 1,335 m 298.07° 301.83° Asphalt 433 ft / 132 m 0 ft / 0 m
34 150 ft / 46 m 5,005 ft / 1,525 m 338.67° 342.43° Asphalt 0 ft / 0 m 0 ft / 0 m

Approach Navaids

Runway Type Ident Frequency Range Bearing (true) Bearing (mag) Slope Elevation
16 Localiser IPWK 111.90 MHz 18 nm / 33 km 158.68° 162.43° - 642 ft / 196 m (AMSL)
16 Glidescope IPWK 111.90 MHz 10 nm / 19 km 158.67° 162.43° 3.00° 639 ft / 195 m (AMSL)